createdAt,value
2019-04-30T00:08:48.112Z,41.70
2019-04-30T00:18:59.906Z,36.40
2019-04-30T00:28:51.415Z,39.80
2019-04-30T00:38:54.827Z,43.13
2019-04-30T00:49:08.534Z,36.73
2019-04-30T00:59:02.714Z,36.90
2019-04-30T01:09:05.436Z,33.97
2019-04-30T01:19:05.701Z,37.20
2019-04-30T01:29:07.680Z,33.03
2019-04-30T01:39:09.455Z,34.90
2019-04-30T01:49:10.239Z,38.43
2019-04-30T01:59:10.853Z,36.50
2019-04-30T02:09:11.594Z,34.23
2019-04-30T02:19:12.248Z,39.57
2019-04-30T02:29:12.888Z,30.07
2019-04-30T02:39:13.612Z,31.57
2019-04-30T02:49:16.527Z,30.30
2019-04-30T02:59:20.070Z,29.17
2019-04-30T03:09:20.432Z,33.37
2019-04-30T03:19:21.234Z,28.50
2019-04-30T03:29:23.931Z,26.17
2019-04-30T03:39:24.428Z,25.63
2019-04-30T03:49:25.130Z,25.90
2019-04-30T03:59:26.002Z,29.10
2019-04-30T04:09:26.673Z,28.23
2019-04-30T04:19:29.253Z,30.20
2019-04-30T04:29:30.019Z,28.73
2019-04-30T04:39:30.742Z,26.07
2019-04-30T04:49:31.413Z,24.10
2019-04-30T04:59:32.686Z,25.90
2019-04-30T05:09:33.387Z,29.83
2019-04-30T05:19:34.118Z,32.63
2019-04-30T05:29:34.915Z,29.07
2019-04-30T05:39:35.591Z,33.97
2019-04-30T05:49:36.278Z,33.37
2019-04-30T05:59:38.713Z,32.33
2019-04-30T06:09:39.651Z,30.50
2019-04-30T06:19:45.175Z,31.60
2019-04-30T06:29:45.926Z,40.70
2019-04-30T06:39:46.717Z,31.43
2019-04-30T06:49:48.882Z,30.83
2019-04-30T06:59:51.609Z,25.67
2019-04-30T07:09:58.039Z,21.10
2019-04-30T07:19:56.861Z,23.83
2019-04-30T07:29:59.576Z,23.63
2019-04-30T07:40:09.100Z,16.77
2019-04-30T07:50:11.297Z,17.57
2019-04-30T08:00:12.330Z,10.30
2019-04-30T08:10:14.171Z,10.93
2019-04-30T08:20:15.999Z,10.77
2019-04-30T08:30:23.895Z,12.37
2019-04-30T08:40:19.327Z,8.63
2019-04-30T08:50:20.980Z,8.77
2019-04-30T09:00:22.035Z,8.40
2019-04-30T09:10:22.789Z,6.90
2019-04-30T09:20:24.545Z,3.20
2019-04-30T09:30:25.227Z,4.40
2019-04-30T09:40:26.086Z,4.90
2019-04-30T09:50:28.644Z,3.87
2019-04-30T10:00:29.665Z,4.97
2019-04-30T10:10:30.259Z,5.30
2019-04-30T10:20:41.941Z,6.00
2019-04-30T10:30:42.653Z,4.10
2019-04-30T10:40:43.454Z,3.13
2019-04-30T10:50:44.157Z,4.20
2019-04-30T11:00:45.843Z,4.97
2019-04-30T11:10:46.531Z,6.03
2019-04-30T11:20:49.785Z,5.90
2019-04-30T11:30:50.823Z,6.03
2019-04-30T11:40:51.655Z,4.17
2019-04-30T11:50:52.411Z,3.83
2019-04-30T12:00:53.051Z,3.10
2019-04-30T12:10:53.771Z,2.97
2019-04-30T12:20:54.440Z,3.87
2019-04-30T12:30:55.147Z,3.30
2019-04-30T12:40:55.828Z,2.27
2019-04-30T12:50:56.490Z,7.17
2019-04-30T13:00:59.113Z,5.87
2019-04-30T13:11:03.923Z,4.00
2019-04-30T13:21:05.813Z,2.90
2019-04-30T13:31:06.650Z,5.87
2019-04-30T13:41:08.880Z,5.57
2019-04-30T13:51:09.719Z,4.57
2019-04-30T14:01:10.627Z,4.37
2019-04-30T14:11:11.243Z,6.53
2019-04-30T14:21:14.215Z,7.83
2019-04-30T14:31:15.000Z,7.97
2019-04-30T14:41:16.281Z,6.27
2019-04-30T14:51:17.117Z,6.77
2019-04-30T15:01:19.410Z,8.50
2019-04-30T15:11:20.147Z,8.30
2019-04-30T15:21:21.059Z,10.07
2019-04-30T15:31:21.894Z,6.93
2019-04-30T15:41:22.592Z,6.60
2019-04-30T15:51:24.265Z,8.60
2019-04-30T16:01:24.952Z,7.50
2019-04-30T16:11:29.434Z,8.33
2019-04-30T16:21:30.669Z,11.43
2019-04-30T16:31:31.420Z,8.33
2019-04-30T16:41:32.239Z,8.30
2019-04-30T16:51:34.041Z,8.97
2019-04-30T17:01:36.799Z,10.50
2019-04-30T17:11:38.624Z,8.80
2019-04-30T17:21:39.533Z,9.23
2019-04-30T17:31:43.214Z,8.43
2019-04-30T17:41:43.946Z,8.00
2019-04-30T17:51:44.679Z,8.47
2019-04-30T18:01:45.337Z,9.63
2019-04-30T18:11:46.028Z,9.10
2019-04-30T18:21:48.617Z,10.93
2019-04-30T18:31:49.749Z,12.77
2019-04-30T18:41:50.436Z,11.43
2019-04-30T18:51:51.205Z,14.23
2019-04-30T19:01:51.880Z,10.67
2019-04-30T19:11:52.583Z,16.43
2019-04-30T19:21:53.349Z,11.73
2019-04-30T19:31:54.100Z,13.60
2019-04-30T19:41:54.771Z,13.03
2019-04-30T19:52:06.219Z,15.13
2019-04-30T20:01:59.526Z,9.93
2019-04-30T20:12:00.325Z,13.77
2019-04-30T20:22:01.130Z,12.20
2019-04-30T20:32:01.769Z,10.37
2019-04-30T20:42:03.499Z,13.57
2019-04-30T20:52:05.345Z,17.37
2019-04-30T21:02:05.974Z,13.73
2019-04-30T21:12:08.852Z,14.53
2019-04-30T21:22:09.577Z,12.67
2019-04-30T21:32:10.375Z,12.80
2019-04-30T21:42:11.104Z,13.23
2019-04-30T21:52:11.801Z,12.40
2019-04-30T22:02:12.580Z,14.67
2019-04-30T22:12:13.372Z,12.03
2019-04-30T22:22:14.013Z,14.63
2019-04-30T22:32:16.436Z,12.13
2019-04-30T22:42:21.980Z,13.40
2019-04-30T22:52:23.722Z,13.07
2019-04-30T23:02:25.328Z,12.93
2019-04-30T23:12:26.046Z,13.90
2019-04-30T23:22:26.705Z,16.10
2019-04-30T23:32:27.441Z,10.60
2019-04-30T23:42:29.194Z,14.47
2019-04-30T23:52:29.997Z,12.53
